createdAt,value
2023-02-26T00:00:17.166Z,1.52
2023-02-26T00:02:46.118Z,0.70
2023-02-26T00:05:13.093Z,2.08
2023-02-26T00:07:40.188Z,0.90
2023-02-26T00:10:09.123Z,0.98
2023-02-26T00:12:36.688Z,1.25
2023-02-26T00:15:05.426Z,1.10
2023-02-26T00:17:49.137Z,2.15
2023-02-26T00:20:17.553Z,1.20
2023-02-26T00:22:45.033Z,1.00
2023-02-26T00:25:12.467Z,0.63
2023-02-26T00:27:39.956Z,1.33
2023-02-26T00:30:08.833Z,1.15
2023-02-26T00:32:36.689Z,0.40
2023-02-26T00:35:04.438Z,1.30
2023-02-26T00:37:34.380Z,0.70
2023-02-26T00:40:14.391Z,0.88
2023-02-26T00:42:41.681Z,0.70
2023-02-26T00:45:09.817Z,1.20
2023-02-26T00:47:45.382Z,1.48
2023-02-26T00:50:18.789Z,0.90
2023-02-26T00:53:02.264Z,0.98
2023-02-26T00:55:29.748Z,1.48
2023-02-26T00:57:56.955Z,2.28
2023-02-26T01:00:24.047Z,1.27
2023-02-26T01:02:51.890Z,0.88
2023-02-26T01:05:19.517Z,1.00
2023-02-26T01:07:57.025Z,0.82
2023-02-26T01:10:24.289Z,1.35
2023-02-26T01:12:51.646Z,0.88
2023-02-26T01:15:18.910Z,0.65
2023-02-26T01:18:06.798Z,0.50
2023-02-26T01:21:08.699Z,0.70
2023-02-26T01:23:47.910Z,0.90
2023-02-26T01:26:28.180Z,0.60
2023-02-26T01:28:57.349Z,0.80
2023-02-26T01:31:34.955Z,0.70
2023-02-26T01:34:32.544Z,1.60
2023-02-26T01:37:13.847Z,1.20
2023-02-26T01:40:04.944Z,0.80
2023-02-26T01:42:37.685Z,1.08
2023-02-26T01:45:14.978Z,1.67
2023-02-26T01:47:54.310Z,0.73
2023-02-26T01:50:30.021Z,0.93
2023-02-26T01:53:17.880Z,1.63
2023-02-26T01:55:49.528Z,1.23
2023-02-26T01:58:17.280Z,0.82
2023-02-26T02:00:44.449Z,0.82
2023-02-26T02:03:11.620Z,1.00
2023-02-26T02:06:05.596Z,1.67
2023-02-26T02:08:35.621Z,0.80
2023-02-26T02:11:06.851Z,0.73
2023-02-26T02:13:42.912Z,1.10
2023-02-26T02:16:29.385Z,0.65
2023-02-26T02:19:18.092Z,1.05
2023-02-26T02:22:03.179Z,1.00
2023-02-26T02:24:42.256Z,0.60
2023-02-26T02:27:32.031Z,0.70
2023-02-26T02:30:31.222Z,0.80
2023-02-26T02:33:05.491Z,0.80
2023-02-26T02:38:18.296Z,1.95
2023-02-26T02:40:51.178Z,0.77
2023-02-26T02:43:22.677Z,1.70
2023-02-26T02:45:58.327Z,1.17
2023-02-26T02:48:37.464Z,0.88
2023-02-26T02:51:24.689Z,1.05
2023-02-26T02:53:57.193Z,1.02
2023-02-26T02:56:28.867Z,1.05
2023-02-26T02:59:15.387Z,2.55
2023-02-26T03:01:45.524Z,0.70
2023-02-26T03:04:15.313Z,0.77
2023-02-26T03:06:43.394Z,0.85
2023-02-26T03:09:10.653Z,0.75
2023-02-26T03:11:39.331Z,1.10
2023-02-26T03:14:10.270Z,0.60
2023-02-26T03:17:00.535Z,1.00
2023-02-26T03:19:44.697Z,0.70
2023-02-26T03:22:34.882Z,0.95
2023-02-26T03:25:15.198Z,1.00
2023-02-26T03:27:55.227Z,1.00
2023-02-26T03:30:33.865Z,1.20
2023-02-26T03:33:48.875Z,0.90
2023-02-26T03:36:20.358Z,1.27
2023-02-26T03:38:57.651Z,3.75
2023-02-26T03:41:43.121Z,0.80
2023-02-26T03:44:19.667Z,0.98
2023-02-26T03:46:55.398Z,1.67
2023-02-26T03:49:30.246Z,0.80
2023-02-26T03:52:00.545Z,0.90
2023-02-26T03:54:32.991Z,0.90
2023-02-26T03:57:00.341Z,0.70
2023-02-26T03:59:27.450Z,0.80
2023-02-26T04:02:02.964Z,1.73
2023-02-26T04:04:52.897Z,1.38
2023-02-26T04:07:21.170Z,1.00
2023-02-26T04:09:50.627Z,1.00
2023-02-26T04:12:26.675Z,1.35
2023-02-26T04:14:54.355Z,1.00
2023-02-26T04:17:21.343Z,0.80
2023-02-26T04:19:48.316Z,1.35
2023-02-26T04:22:15.777Z,1.40
2023-02-26T04:24:42.867Z,0.70
2023-02-26T04:27:09.772Z,0.90
2023-02-26T04:29:37.761Z,0.60
2023-02-26T04:32:04.976Z,0.70
2023-02-26T04:34:32.081Z,0.77
2023-02-26T04:36:58.926Z,0.75
2023-02-26T04:39:25.886Z,1.35
2023-02-26T04:41:52.766Z,1.00
2023-02-26T04:44:19.734Z,1.50
2023-02-26T04:46:46.632Z,1.20
2023-02-26T04:49:13.592Z,2.28
2023-02-26T04:51:40.528Z,0.77
2023-02-26T04:54:07.520Z,0.75
2023-02-26T04:56:34.582Z,0.98
2023-02-26T04:59:01.912Z,0.93
2023-02-26T05:01:29.102Z,0.52
2023-02-26T05:03:56.087Z,1.05
2023-02-26T05:06:23.251Z,1.10
2023-02-26T05:08:50.403Z,1.33
2023-02-26T05:11:17.425Z,0.93
2023-02-26T05:13:44.483Z,0.73
2023-02-26T05:16:11.486Z,1.65
2023-02-26T05:18:38.500Z,1.50
2023-02-26T05:21:05.736Z,0.90
2023-02-26T05:23:33.289Z,1.23
2023-02-26T05:26:00.336Z,0.80
2023-02-26T05:28:27.623Z,0.98
2023-02-26T05:30:57.490Z,0.98
2023-02-26T05:33:24.679Z,0.60
2023-02-26T05:35:51.618Z,0.50
2023-02-26T05:38:18.998Z,0.70
2023-02-26T05:40:46.098Z,1.05
2023-02-26T05:43:13.071Z,1.33
2023-02-26T05:45:39.992Z,1.15
2023-02-26T05:48:07.288Z,0.50
2023-02-26T05:50:34.240Z,0.60
2023-02-26T05:53:01.244Z,0.50
2023-02-26T05:55:28.148Z,0.60
2023-02-26T05:57:55.112Z,0.98
2023-02-26T06:00:22.170Z,0.50
2023-02-26T06:02:49.275Z,0.40
2023-02-26T06:05:16.314Z,0.43
2023-02-26T06:07:43.328Z,1.00
2023-02-26T06:10:11.920Z,0.50
2023-02-26T06:12:39.557Z,0.90
2023-02-26T06:15:08.238Z,0.60
2023-02-26T06:17:36.107Z,0.82
2023-02-26T06:20:04.710Z,0.50
2023-02-26T06:22:31.748Z,0.50
2023-02-26T06:24:59.863Z,1.05
2023-02-26T06:27:26.900Z,1.30
2023-02-26T06:29:54.346Z,0.60
2023-02-26T06:32:21.373Z,0.75
2023-02-26T06:34:48.500Z,0.77
2023-02-26T06:37:16.451Z,0.98
2023-02-26T06:39:43.440Z,0.90
2023-02-26T06:42:10.980Z,0.77
2023-02-26T06:44:37.997Z,1.00
2023-02-26T06:47:05.153Z,1.10
2023-02-26T06:49:32.103Z,0.80
2023-02-26T06:51:59.113Z,0.80
2023-02-26T06:54:26.108Z,1.60
2023-02-26T06:56:53.078Z,1.40
2023-02-26T06:59:20.209Z,0.70
2023-02-26T07:01:47.328Z,0.60
2023-02-26T07:04:14.244Z,0.63
2023-02-26T07:06:41.459Z,1.27
2023-02-26T07:09:08.575Z,0.70
2023-02-26T07:11:35.598Z,0.80
2023-02-26T07:14:02.485Z,0.50
2023-02-26T07:16:29.678Z,0.80
2023-02-26T07:18:56.818Z,0.85
2023-02-26T07:21:23.902Z,0.90
2023-02-26T07:23:50.928Z,3.25
2023-02-26T07:26:18.024Z,1.45
2023-02-26T07:28:44.969Z,0.80
2023-02-26T07:31:11.961Z,0.98
2023-02-26T07:33:39.749Z,0.65
2023-02-26T07:36:06.960Z,0.80
2023-02-26T07:38:33.947Z,0.90
2023-02-26T07:41:00.937Z,0.80
2023-02-26T07:43:27.941Z,0.90
2023-02-26T07:45:54.978Z,0.65
2023-02-26T07:48:22.216Z,1.05
2023-02-26T07:50:52.491Z,1.15
2023-02-26T07:53:19.760Z,1.08
2023-02-26T07:55:46.944Z,0.95
2023-02-26T07:58:14.450Z,1.02
2023-02-26T08:00:41.303Z,2.25
2023-02-26T08:03:08.312Z,0.93
2023-02-26T08:05:35.379Z,0.60
2023-02-26T08:08:03.362Z,1.17
2023-02-26T08:10:30.878Z,1.40
2023-02-26T08:12:57.919Z,0.90
2023-02-26T08:15:25.118Z,0.90
2023-02-26T08:17:54.912Z,1.00
2023-02-26T08:20:22.041Z,0.93
2023-02-26T08:22:50.847Z,1.45
2023-02-26T08:25:18.284Z,1.48
2023-02-26T08:27:45.346Z,1.42
2023-02-26T08:30:12.807Z,1.75
2023-02-26T08:32:42.123Z,1.10
2023-02-26T08:35:10.570Z,0.80
2023-02-26T08:37:38.470Z,1.45
2023-02-26T08:40:09.035Z,0.50
2023-02-26T08:42:36.459Z,0.85
2023-02-26T08:45:03.942Z,1.20
2023-02-26T08:47:31.418Z,1.23
2023-02-26T08:49:59.098Z,0.70
2023-02-26T08:52:26.577Z,1.50
2023-02-26T08:54:53.548Z,0.50
2023-02-26T08:57:20.606Z,0.70
2023-02-26T08:59:47.625Z,0.90
2023-02-26T09:02:15.226Z,2.35
2023-02-26T09:04:42.338Z,0.85
2023-02-26T09:07:09.409Z,0.85
2023-02-26T09:09:36.625Z,0.88
2023-02-26T09:12:04.097Z,0.50
2023-02-26T09:14:31.266Z,0.60
2023-02-26T09:16:58.236Z,0.85
2023-02-26T09:19:25.229Z,0.90
2023-02-26T09:21:52.157Z,0.95
2023-02-26T09:24:19.439Z,0.90
2023-02-26T09:26:46.394Z,0.70
2023-02-26T09:29:14.515Z,1.08
2023-02-26T09:31:41.709Z,0.60
2023-02-26T09:34:11.120Z,0.50
2023-02-26T09:36:39.169Z,1.15
2023-02-26T09:39:08.740Z,0.85
2023-02-26T09:41:50.270Z,2.08
2023-02-26T09:44:30.659Z,0.73
2023-02-26T09:47:23.066Z,0.63
2023-02-26T09:50:06.217Z,1.08
2023-02-26T09:53:11.039Z,0.80
2023-02-26T09:58:26.475Z,1.00
2023-02-26T10:01:18.956Z,0.40
2023-02-26T10:04:03.796Z,1.17
2023-02-26T10:07:08.948Z,0.75
2023-02-26T10:10:03.134Z,0.70
2023-02-26T10:12:35.986Z,0.70
2023-02-26T10:15:17.454Z,0.73
2023-02-26T10:18:12.370Z,0.50
2023-02-26T10:20:57.300Z,1.15
2023-02-26T10:23:43.906Z,0.70
2023-02-26T10:26:28.667Z,0.85
2023-02-26T10:28:58.515Z,0.60
2023-02-26T10:32:03.969Z,0.73
2023-02-26T10:34:53.944Z,1.10
2023-02-26T10:37:24.192Z,1.45
2023-02-26T10:39:56.592Z,1.42
2023-02-26T10:42:28.582Z,0.90
2023-02-26T10:45:20.102Z,1.98
2023-02-26T10:48:00.149Z,1.73
2023-02-26T10:50:27.691Z,1.13
2023-02-26T10:52:55.288Z,1.15
2023-02-26T10:55:28.271Z,0.80
2023-02-26T10:58:16.817Z,1.75
2023-02-26T11:00:47.982Z,0.80
2023-02-26T11:03:37.009Z,0.90
2023-02-26T11:06:06.663Z,1.60
2023-02-26T11:08:46.193Z,1.30
2023-02-26T11:11:35.738Z,0.90
2023-02-26T11:14:03.022Z,0.70
2023-02-26T11:16:30.420Z,1.17
2023-02-26T11:19:00.678Z,1.40
2023-02-26T11:21:38.425Z,1.65
2023-02-26T11:24:10.662Z,1.30
2023-02-26T11:26:39.561Z,0.95
2023-02-26T11:29:06.764Z,1.02
2023-02-26T11:31:34.293Z,0.95
2023-02-26T11:34:08.272Z,0.82
2023-02-26T11:36:39.585Z,0.80
2023-02-26T11:39:14.369Z,0.70
2023-02-26T11:41:42.087Z,1.10
2023-02-26T11:44:15.803Z,0.80
2023-02-26T11:46:58.001Z,0.57
2023-02-26T11:49:27.929Z,0.73
2023-02-26T11:52:04.700Z,0.95
2023-02-26T11:54:37.392Z,0.82
2023-02-26T11:57:12.185Z,0.50
2023-02-26T11:59:41.230Z,0.60
2023-02-26T12:02:13.531Z,0.80
2023-02-26T12:04:45.017Z,1.23
2023-02-26T12:07:15.073Z,1.10
2023-02-26T12:09:43.061Z,1.70
2023-02-26T12:12:12.776Z,1.30
2023-02-26T12:15:01.702Z,0.95
2023-02-26T12:17:35.079Z,1.00
2023-02-26T12:20:19.806Z,1.13
2023-02-26T12:23:08.186Z,0.90
2023-02-26T12:25:47.166Z,0.80
2023-02-26T12:28:14.756Z,1.17
2023-02-26T12:31:03.738Z,1.45
2023-02-26T12:33:45.623Z,1.20
2023-02-26T12:36:46.432Z,1.95
2023-02-26T12:39:49.116Z,1.42
2023-02-26T12:42:55.005Z,0.70
2023-02-26T12:45:51.644Z,1.45
2023-02-26T12:48:24.697Z,0.88
2023-02-26T12:51:22.886Z,1.73
2023-02-26T12:54:18.289Z,1.48
2023-02-26T12:56:57.362Z,0.90
2023-02-26T12:59:27.199Z,1.10
2023-02-26T13:02:06.442Z,0.70
2023-02-26T13:04:45.441Z,1.27
2023-02-26T13:07:17.964Z,1.27
2023-02-26T13:09:50.804Z,1.00
2023-02-26T13:12:47.083Z,1.60
2023-02-26T13:15:28.979Z,2.13
2023-02-26T13:18:05.333Z,2.40
2023-02-26T13:20:34.082Z,1.30
2023-02-26T13:23:31.553Z,1.30
2023-02-26T13:26:02.658Z,1.10
2023-02-26T13:28:47.504Z,2.35
2023-02-26T13:31:36.048Z,1.13
2023-02-26T13:34:09.920Z,1.42
2023-02-26T13:36:37.031Z,1.40
2023-02-26T13:39:29.741Z,1.30
2023-02-26T13:42:29.925Z,1.50
2023-02-26T13:45:05.432Z,0.82
2023-02-26T13:47:42.857Z,1.08
2023-02-26T13:50:40.987Z,2.40
2023-02-26T13:53:33.775Z,1.20
2023-02-26T13:56:32.345Z,0.98
2023-02-26T13:59:24.559Z,1.80
2023-02-26T14:01:57.780Z,0.77
2023-02-26T14:04:29.916Z,0.98
2023-02-26T14:07:10.622Z,1.38
2023-02-26T14:09:56.476Z,0.88
2023-02-26T14:12:33.732Z,1.50
2023-02-26T14:15:00.579Z,0.70
2023-02-26T14:17:50.348Z,0.80
2023-02-26T14:20:26.911Z,1.15
2023-02-26T14:22:59.957Z,1.40
2023-02-26T14:25:48.463Z,0.77
2023-02-26T14:28:27.949Z,1.27
2023-02-26T14:31:18.319Z,1.10
2023-02-26T14:34:03.311Z,2.08
2023-02-26T14:36:49.669Z,2.03
2023-02-26T14:39:23.837Z,1.40
2023-02-26T14:41:57.371Z,1.35
2023-02-26T14:44:32.811Z,1.33
2023-02-26T14:47:00.565Z,1.35
2023-02-26T14:49:34.454Z,1.65
2023-02-26T14:55:16.819Z,1.55
2023-02-26T14:58:01.618Z,1.73
2023-02-26T15:00:53.826Z,2.00
2023-02-26T15:03:49.805Z,1.73
2023-02-26T15:06:54.271Z,1.52
2023-02-26T15:09:42.676Z,2.03
2023-02-26T15:12:29.881Z,1.70
2023-02-26T15:15:10.526Z,1.40
2023-02-26T15:17:47.394Z,1.23
2023-02-26T15:20:22.626Z,1.73
2023-02-26T15:22:49.625Z,1.02
2023-02-26T15:25:31.615Z,1.35
2023-02-26T15:27:58.698Z,2.30
2023-02-26T15:30:26.032Z,2.25
2023-02-26T15:32:58.159Z,1.50
2023-02-26T15:35:29.190Z,0.80
2023-02-26T15:38:01.159Z,1.15
2023-02-26T15:40:34.626Z,1.33
2023-02-26T15:43:03.485Z,1.77
2023-02-26T15:45:37.858Z,1.00
2023-02-26T15:48:44.543Z,2.40
2023-02-26T15:51:14.894Z,1.77
2023-02-26T15:53:45.918Z,1.45
2023-02-26T15:56:22.031Z,1.85
2023-02-26T15:59:03.606Z,1.20
2023-02-26T16:01:31.675Z,1.20
2023-02-26T16:04:02.699Z,1.38
2023-02-26T16:06:35.862Z,2.92
2023-02-26T16:09:06.039Z,1.67
2023-02-26T16:11:39.962Z,2.83
2023-02-26T16:14:08.562Z,0.90
2023-02-26T16:16:42.017Z,2.85
2023-02-26T16:19:21.338Z,1.92
2023-02-26T16:21:49.713Z,1.40
2023-02-26T16:24:23.198Z,2.50
2023-02-26T16:26:56.271Z,1.45
2023-02-26T16:29:31.625Z,2.08
2023-02-26T16:32:01.522Z,1.02
2023-02-26T16:34:37.538Z,2.03
2023-02-26T16:37:32.181Z,1.67
2023-02-26T16:39:59.261Z,1.05
2023-02-26T16:42:46.460Z,1.08
2023-02-26T16:45:20.101Z,1.02
2023-02-26T16:47:51.940Z,1.17
2023-02-26T16:50:25.407Z,1.02
2023-02-26T16:53:24.572Z,1.63
2023-02-26T16:55:55.750Z,1.02
2023-02-26T16:58:24.736Z,2.15
2023-02-26T17:01:01.746Z,1.73
2023-02-26T17:03:30.642Z,3.97
2023-02-26T17:06:06.495Z,6.18
2023-02-26T17:08:36.712Z,3.13
2023-02-26T17:11:08.710Z,1.40
2023-02-26T17:13:38.346Z,1.17
2023-02-26T17:16:09.039Z,1.27
2023-02-26T17:18:36.269Z,1.27
2023-02-26T17:21:05.612Z,1.13
2023-02-26T17:23:37.240Z,1.73
2023-02-26T17:26:05.270Z,1.63
2023-02-26T17:28:36.144Z,2.85
2023-02-26T17:31:04.200Z,2.22
2023-02-26T17:33:31.138Z,1.95
2023-02-26T17:36:02.964Z,2.35
2023-02-26T17:38:30.375Z,1.85
2023-02-26T17:40:58.408Z,2.13
2023-02-26T17:43:26.303Z,1.40
2023-02-26T17:45:53.894Z,2.88
2023-02-26T17:48:21.257Z,2.00
2023-02-26T17:50:54.789Z,0.98
2023-02-26T17:53:23.876Z,1.30
2023-02-26T17:55:53.373Z,1.98
2023-02-26T17:58:28.808Z,1.05
2023-02-26T18:00:56.610Z,1.67
2023-02-26T18:03:24.060Z,1.38
2023-02-26T18:05:53.584Z,2.42
2023-02-26T18:08:28.911Z,2.45
2023-02-26T18:10:56.584Z,1.75
2023-02-26T18:13:24.396Z,1.95
2023-02-26T18:15:52.333Z,1.00
2023-02-26T18:21:33.571Z,1.70
2023-02-26T18:24:01.856Z,1.00
2023-02-26T18:26:32.662Z,1.10
2023-02-26T18:29:00.086Z,1.55
2023-02-26T18:31:35.003Z,1.30
2023-02-26T18:34:03.022Z,1.48
2023-02-26T18:36:37.665Z,1.05
2023-02-26T18:39:08.014Z,3.67
2023-02-26T18:41:35.311Z,1.23
2023-02-26T18:44:02.354Z,1.73
2023-02-26T18:46:30.287Z,2.70
2023-02-26T18:48:57.346Z,1.67
2023-02-26T18:51:24.816Z,2.45
2023-02-26T18:53:52.169Z,1.88
2023-02-26T18:56:19.197Z,4.03
2023-02-26T18:58:46.207Z,2.63
2023-02-26T19:01:13.111Z,2.58
2023-02-26T19:03:40.225Z,2.40
2023-02-26T19:06:10.506Z,3.42
2023-02-26T19:08:37.543Z,3.50
2023-02-26T19:11:04.709Z,3.03
2023-02-26T19:13:31.747Z,3.55
2023-02-26T19:15:58.828Z,2.70
2023-02-26T19:18:25.841Z,3.55
2023-02-26T19:20:52.883Z,1.80
2023-02-26T19:23:20.109Z,2.00
2023-02-26T19:25:47.610Z,2.33
2023-02-26T19:28:14.641Z,2.08
2023-02-26T19:30:41.665Z,2.40
2023-02-26T19:33:08.637Z,2.15
2023-02-26T19:35:35.819Z,2.67
2023-02-26T19:38:02.767Z,1.42
2023-02-26T19:40:29.898Z,2.33
2023-02-26T19:42:56.901Z,1.90
2023-02-26T19:45:24.107Z,2.88
2023-02-26T19:47:51.128Z,3.72
2023-02-26T19:50:19.338Z,2.58
2023-02-26T19:52:46.353Z,3.55
2023-02-26T19:55:14.535Z,3.22
2023-02-26T19:57:41.563Z,3.20
2023-02-26T20:00:09.586Z,2.38
2023-02-26T20:02:36.496Z,3.25
2023-02-26T20:05:05.718Z,3.35
2023-02-26T20:07:33.175Z,2.20
2023-02-26T20:10:01.047Z,2.30
2023-02-26T20:12:30.318Z,2.00
2023-02-26T20:14:57.599Z,8.40
2023-02-26T20:17:24.574Z,9.80
2023-02-26T20:19:51.476Z,6.68
2023-02-26T20:22:20.863Z,3.08
2023-02-26T20:24:47.785Z,5.32
2023-02-26T20:27:14.998Z,3.90
2023-02-26T20:29:42.021Z,3.00
2023-02-26T20:32:09.125Z,3.38
2023-02-26T20:34:36.218Z,2.45
2023-02-26T20:37:03.469Z,3.72
2023-02-26T20:39:31.165Z,8.35
2023-02-26T20:41:58.197Z,6.85
2023-02-26T20:44:25.204Z,11.07
2023-02-26T20:46:52.659Z,9.65
2023-02-26T20:49:19.677Z,7.32
2023-02-26T20:51:46.623Z,8.00
2023-02-26T20:54:14.867Z,9.27
2023-02-26T20:56:41.761Z,10.40
2023-02-26T20:59:09.709Z,8.48
2023-02-26T21:01:36.742Z,8.35
2023-02-26T21:04:06.258Z,5.03
2023-02-26T21:06:34.124Z,4.60
2023-02-26T21:09:01.847Z,3.95
2023-02-26T21:11:36.632Z,5.05
2023-02-26T21:14:05.950Z,5.50
2023-02-26T21:16:33.049Z,3.65
2023-02-26T21:19:04.481Z,4.65
2023-02-26T21:21:31.993Z,5.18
2023-02-26T21:23:59.111Z,6.03
2023-02-26T21:26:27.771Z,4.25
2023-02-26T21:28:54.874Z,3.50
2023-02-26T21:31:22.491Z,3.97
2023-02-26T21:33:49.503Z,3.25
2023-02-26T21:36:16.893Z,5.57
2023-02-26T21:38:43.924Z,3.92
2023-02-26T21:41:11.332Z,4.25
2023-02-26T21:43:39.308Z,4.55
2023-02-26T21:46:06.789Z,3.10
2023-02-26T21:48:33.797Z,3.35
2023-02-26T21:51:01.007Z,4.15
2023-02-26T21:53:28.517Z,3.33
2023-02-26T21:55:56.866Z,2.53
2023-02-26T21:58:25.198Z,3.95
2023-02-26T22:00:52.198Z,3.72
2023-02-26T22:03:19.152Z,4.20
2023-02-26T22:05:46.163Z,2.70
2023-02-26T22:08:13.134Z,4.82
2023-02-26T22:10:40.135Z,5.50
2023-02-26T22:13:07.107Z,5.05
2023-02-26T22:15:33.963Z,3.20
2023-02-26T22:18:00.949Z,2.78
2023-02-26T22:20:28.323Z,4.22
2023-02-26T22:22:55.379Z,3.17
2023-02-26T22:25:22.505Z,3.58
2023-02-26T22:27:49.458Z,3.67
2023-02-26T22:30:16.854Z,3.65
2023-02-26T22:32:44.069Z,3.88
2023-02-26T22:35:13.921Z,4.10
2023-02-26T22:37:42.304Z,4.30
2023-02-26T22:40:12.621Z,4.00
2023-02-26T22:42:41.040Z,5.35
2023-02-26T22:45:08.964Z,4.57
2023-02-26T22:47:35.878Z,5.07
2023-02-26T22:50:02.912Z,3.95
2023-02-26T22:52:30.080Z,4.90
2023-02-26T22:54:57.617Z,5.97
2023-02-26T22:57:24.670Z,4.95
2023-02-26T22:59:51.592Z,4.75
2023-02-26T23:02:18.626Z,5.20
2023-02-26T23:04:45.662Z,2.33
2023-02-26T23:07:12.639Z,2.63
2023-02-26T23:09:41.326Z,2.78
2023-02-26T23:12:09.283Z,3.05
2023-02-26T23:14:36.547Z,3.40
2023-02-26T23:17:04.349Z,2.63
2023-02-26T23:19:31.489Z,2.50
2023-02-26T23:21:58.421Z,3.92
2023-02-26T23:24:25.433Z,3.05
2023-02-26T23:26:52.479Z,4.20
2023-02-26T23:29:19.462Z,2.58
2023-02-26T23:31:46.600Z,3.03
2023-02-26T23:34:13.704Z,3.08
2023-02-26T23:36:40.702Z,2.80
2023-02-26T23:39:08.655Z,3.47
2023-02-26T23:41:35.876Z,4.10
2023-02-26T23:44:02.791Z,3.00
2023-02-26T23:46:29.772Z,3.90
2023-02-26T23:48:57.519Z,3.25
2023-02-26T23:51:25.458Z,2.70
2023-02-26T23:53:52.684Z,3.33
2023-02-26T23:56:19.637Z,3.88
2023-02-26T23:58:46.704Z,3.17
